Skip Navigation LinksHome page > Weather > Current weather Skip Navigation Links

Current Weather

Heathrow, London

For information only: do not use for flight planning or navigation.
Latest weather
Observation time Saturday, August 19, 2017 5:50 AM BST
Local time Saturday, August 19, 2017 6:21 AM BST
Flight conditions Visual Meteorological Conditions
Winds
Wind direction West (270°)
Wind speed 10 mph
Visibility 6.2 mi.
Sky condition
Ceiling unlimited
Temperature 55°F
Dewpoint 52°F
Altimeter 29.97 in.Hg
Derived measurements
Relative humidity 88%
Density altitude -112 ft.
Remarks
Corrected report.
Fully automated report.
No significant changes expected in the next two hours.
METAR COR EGLL 190450Z AUTO 27009KT 9999 NCD 13/11 Q1015 NOSIG

Settings

Location code

InnerDrive.Weather 4.0.6144.1 Release CLR 4.0.30319.36366
Copyright ©2015 Inner Drive Technology. All rights reserved. Portions Copyright ©1986-2015 David Braverman.

Find weather

Site navigation


Skip Navigation Links

Place info

Page info

PayPal - The safer, easier way to pay online!

Return home.

Copyright ©2017 Inner Drive Technology. Purveyors of fine, hand-crafted computer software. Page printed 2017-08-19T05:21:26 UTC.